To NAV CANADA Home Page Login to a new session Search on AWWS site Feedback and Comments Disclaimer Vers la page française équivalente Tips FAQ What's new on the site To the Forecasts and Observations / NOTAM section To "File a Flight Plan" website Publications and other links Update of the User's profile FIC Telephone Numbers My Weather Data Folder Route Weather Data Regional Weather Data Local Weather Data To the Forecasts and Observations / NOTAM section
Request Generated 02/06/2016 at 13:19:20 UTC . Weather information available at that time is displayed.

METAR/TAF

MONT-JOLI/QC    

METAR CYYY 061300Z 19005KT 30SM SCT020 M13/M16 A3012 RMK SC3 SLP206=
METAR CYYY 061200Z 19005KT 30SM SCT020 M13/M16 A3011 RMK SC4 SLP203=
METAR CYYY 061100Z 27007KT 15SM FEW020 SCT035 M11/M15 A3011 RMK
SC2SC2 SLP201=

TAF AMD CYYY 060813Z 0608/0620 29012G22KT P6SM SCT020 TEMPO 0608/0612
BKN020
FM061200 27010KT P6SM SCT015 TEMPO 0612/0620 BKN015
BECMG 0613/0615 23010KT
RMK NXT FCST BY 061400Z=
Your time UTC time
Weather data provided by Environment Canada and NAV CANADA